sensor_id;sensor_type;location;lat;lon;timestamp;P1;durP1;ratioP1;P2;durP2;ratioP2
4290;SDS011;2159;50.906;7.152;2023-05-10T00:00:04;5.50;;;5.00;;
4290;SDS011;2159;50.906;7.152;2023-05-10T00:02:32;5.80;;;5.10;;
4290;SDS011;2159;50.906;7.152;2023-05-10T00:05:00;6.03;;;5.43;;
4290;SDS011;2159;50.906;7.152;2023-05-10T00:07:28;6.00;;;5.40;;
4290;SDS011;2159;50.906;7.152;2023-05-10T00:09:55;6.70;;;5.57;;
4290;SDS011;2159;50.906;7.152;2023-05-10T00:12:24;9.63;;;5.57;;
4290;SDS011;2159;50.906;7.152;2023-05-10T00:14:51;6.60;;;5.50;;
4290;SDS011;2159;50.906;7.152;2023-05-10T00:17:19;7.63;;;6.30;;
4290;SDS011;2159;50.906;7.152;2023-05-10T00:19:46;5.97;;;5.37;;
4290;SDS011;2159;50.906;7.152;2023-05-10T00:22:14;8.40;;;6.80;;
4290;SDS011;2159;50.906;7.152;2023-05-10T00:24:41;7.57;;;6.53;;
4290;SDS011;2159;50.906;7.152;2023-05-10T00:27:09;9.20;;;6.60;;
4290;SDS011;2159;50.906;7.152;2023-05-10T00:29:38;7.70;;;6.00;;
4290;SDS011;2159;50.906;7.152;2023-05-10T00:32:05;8.80;;;6.63;;
4290;SDS011;2159;50.906;7.152;2023-05-10T00:34:33;13.63;;;7.40;;
4290;SDS011;2159;50.906;7.152;2023-05-10T00:37:00;9.60;;;7.03;;
4290;SDS011;2159;50.906;7.152;2023-05-10T00:39:28;10.53;;;6.90;;
4290;SDS011;2159;50.906;7.152;2023-05-10T00:41:56;10.23;;;7.30;;
4290;SDS011;2159;50.906;7.152;2023-05-10T00:44:23;10.23;;;7.63;;
4290;SDS011;2159;50.906;7.152;2023-05-10T00:46:52;9.70;;;7.67;;
4290;SDS011;2159;50.906;7.152;2023-05-10T00:49:19;12.10;;;7.80;;
4290;SDS011;2159;50.906;7.152;2023-05-10T00:51:47;10.23;;;7.83;;
4290;SDS011;2159;50.906;7.152;2023-05-10T00:54:15;9.97;;;7.60;;
4290;SDS011;2159;50.906;7.152;2023-05-10T00:56:43;11.40;;;7.50;;
4290;SDS011;2159;50.906;7.152;2023-05-10T00:59:14;12.17;;;8.30;;
4290;SDS011;2159;50.906;7.152;2023-05-10T01:01:42;11.33;;;7.90;;
4290;SDS011;2159;50.906;7.152;2023-05-10T01:04:12;13.30;;;7.90;;
4290;SDS011;2159;50.906;7.152;2023-05-10T01:06:39;11.53;;;8.40;;
4290;SDS011;2159;50.906;7.152;2023-05-10T01:09:07;10.47;;;7.77;;
4290;SDS011;2159;50.906;7.152;2023-05-10T01:11:34;10.73;;;8.10;;
4290;SDS011;2159;50.906;7.152;2023-05-10T01:14:02;10.80;;;8.00;;
4290;SDS011;2159;50.906;7.152;2023-05-10T01:16:31;15.30;;;8.80;;
4290;SDS011;2159;50.906;7.152;2023-05-10T01:18:59;11.60;;;8.50;;
4290;SDS011;2159;50.906;7.152;2023-05-10T01:21:30;13.10;;;8.20;;
4290;SDS011;2159;50.906;7.152;2023-05-10T01:26:57;14.13;;;9.23;;
4290;SDS011;2159;50.906;7.152;2023-05-10T01:29:34;14.77;;;9.50;;
4290;SDS011;2159;50.906;7.152;2023-05-10T01:34:58;13.97;;;9.10;;
4290;SDS011;2159;50.906;7.152;2023-05-10T01:37:29;13.77;;;9.70;;
4290;SDS011;2159;50.906;7.152;2023-05-10T01:40:00;14.57;;;9.97;;
4290;SDS011;2159;50.906;7.152;2023-05-10T01:42:32;15.70;;;10.30;;
4290;SDS011;2159;50.906;7.152;2023-05-10T01:45:06;13.37;;;9.23;;
4290;SDS011;2159;50.906;7.152;2023-05-10T01:47:35;15.43;;;10.53;;
4290;SDS011;2159;50.906;7.152;2023-05-10T01:50:06;16.30;;;10.17;;
4290;SDS011;2159;50.906;7.152;2023-05-10T01:52:38;15.63;;;9.97;;
4290;SDS011;2159;50.906;7.152;2023-05-10T01:55:07;15.17;;;10.37;;
4290;SDS011;2159;50.906;7.152;2023-05-10T01:57:37;15.90;;;10.67;;
4290;SDS011;2159;50.906;7.152;2023-05-10T02:00:06;18.43;;;10.70;;
4290;SDS011;2159;50.906;7.152;2023-05-10T02:02:37;18.30;;;10.70;;
4290;SDS011;2159;50.906;7.152;2023-05-10T02:05:07;16.67;;;11.33;;
4290;SDS011;2159;50.906;7.152;2023-05-10T02:07:36;19.30;;;11.30;;
4290;SDS011;2159;50.906;7.152;2023-05-10T02:10:04;16.33;;;10.63;;
4290;SDS011;2159;50.906;7.152;2023-05-10T02:12:35;17.83;;;11.00;;
4290;SDS011;2159;50.906;7.152;2023-05-10T02:15:04;17.50;;;10.77;;
4290;SDS011;2159;50.906;7.152;2023-05-10T02:17:32;39.37;;;10.93;;
4290;SDS011;2159;50.906;7.152;2023-05-10T02:19:59;15.93;;;10.47;;
4290;SDS011;2159;50.906;7.152;2023-05-10T02:22:31;14.33;;;9.90;;
4290;SDS011;2159;50.906;7.152;2023-05-10T02:24:59;14.93;;;10.33;;
4290;SDS011;2159;50.906;7.152;2023-05-10T02:27:27;17.13;;;9.90;;
4290;SDS011;2159;50.906;7.152;2023-05-10T02:29:55;15.67;;;10.37;;
4290;SDS011;2159;50.906;7.152;2023-05-10T02:32:23;15.90;;;10.17;;
4290;SDS011;2159;50.906;7.152;2023-05-10T02:34:51;14.47;;;9.70;;
4290;SDS011;2159;50.906;7.152;2023-05-10T02:37:19;13.93;;;9.40;;
4290;SDS011;2159;50.906;7.152;2023-05-10T02:39:49;16.80;;;10.60;;
4290;SDS011;2159;50.906;7.152;2023-05-10T02:42:17;18.50;;;9.93;;
4290;SDS011;2159;50.906;7.152;2023-05-10T02:44:46;16.10;;;9.80;;
4290;SDS011;2159;50.906;7.152;2023-05-10T02:47:15;15.10;;;9.60;;
4290;SDS011;2159;50.906;7.152;2023-05-10T02:49:43;16.70;;;9.83;;
4290;SDS011;2159;50.906;7.152;2023-05-10T02:52:10;11.93;;;8.53;;
4290;SDS011;2159;50.906;7.152;2023-05-10T02:54:43;10.70;;;7.37;;
4290;SDS011;2159;50.906;7.152;2023-05-10T02:57:14;7.07;;;5.20;;
4290;SDS011;2159;50.906;7.152;2023-05-10T02:59:44;5.40;;;4.87;;
4290;SDS011;2159;50.906;7.152;2023-05-10T03:02:12;6.90;;;4.87;;
4290;SDS011;2159;50.906;7.152;2023-05-10T03:04:39;4.57;;;3.57;;
4290;SDS011;2159;50.906;7.152;2023-05-10T03:07:07;6.20;;;3.70;;
4290;SDS011;2159;50.906;7.152;2023-05-10T03:09:35;3.23;;;2.93;;
4290;SDS011;2159;50.906;7.152;2023-05-10T03:12:04;6.20;;;3.90;;
4290;SDS011;2159;50.906;7.152;2023-05-10T03:14:38;5.00;;;3.10;;
4290;SDS011;2159;50.906;7.152;2023-05-10T03:17:10;7.13;;;3.63;;
4290;SDS011;2159;50.906;7.152;2023-05-10T03:19:40;6.00;;;3.83;;
4290;SDS011;2159;50.906;7.152;2023-05-10T03:22:10;5.43;;;3.43;;
4290;SDS011;2159;50.906;7.152;2023-05-10T03:24:38;11.80;;;4.07;;
4290;SDS011;2159;50.906;7.152;2023-05-10T03:27:06;4.30;;;3.80;;
4290;SDS011;2159;50.906;7.152;2023-05-10T03:29:36;5.23;;;3.70;;
4290;SDS011;2159;50.906;7.152;2023-05-10T03:32:04;4.60;;;4.00;;
4290;SDS011;2159;50.906;7.152;2023-05-10T03:34:32;4.33;;;3.80;;
4290;SDS011;2159;50.906;7.152;2023-05-10T03:36:59;4.73;;;3.93;;
4290;SDS011;2159;50.906;7.152;2023-05-10T03:39:27;7.53;;;4.17;;
4290;SDS011;2159;50.906;7.152;2023-05-10T03:41:54;5.97;;;4.10;;
4290;SDS011;2159;50.906;7.152;2023-05-10T03:44:21;6.37;;;3.90;;
4290;SDS011;2159;50.906;7.152;2023-05-10T03:46:50;5.50;;;4.67;;
4290;SDS011;2159;50.906;7.152;2023-05-10T03:49:18;6.13;;;4.70;;
4290;SDS011;2159;50.906;7.152;2023-05-10T03:51:46;4.57;;;4.03;;
4290;SDS011;2159;50.906;7.152;2023-05-10T03:54:13;6.30;;;4.30;;
4290;SDS011;2159;50.906;7.152;2023-05-10T03:56:41;10.07;;;4.40;;
4290;SDS011;2159;50.906;7.152;2023-05-10T03:59:08;5.87;;;4.47;;
4290;SDS011;2159;50.906;7.152;2023-05-10T04:01:35;6.23;;;4.33;;
4290;SDS011;2159;50.906;7.152;2023-05-10T04:04:04;5.30;;;4.60;;
4290;SDS011;2159;50.906;7.152;2023-05-10T04:06:32;7.10;;;5.13;;
4290;SDS011;2159;50.906;7.152;2023-05-10T04:09:00;6.53;;;4.80;;
4290;SDS011;2159;50.906;7.152;2023-05-10T04:11:30;6.97;;;4.80;;
4290;SDS011;2159;50.906;7.152;2023-05-10T04:13:57;7.43;;;4.80;;
4290;SDS011;2159;50.906;7.152;2023-05-10T04:16:25;8.27;;;5.47;;
4290;SDS011;2159;50.906;7.152;2023-05-10T04:18:52;11.00;;;5.07;;
4290;SDS011;2159;50.906;7.152;2023-05-10T04:21:21;13.33;;;5.80;;
4290;SDS011;2159;50.906;7.152;2023-05-10T04:23:49;11.33;;;5.60;;
4290;SDS011;2159;50.906;7.152;2023-05-10T04:26:16;8.10;;;5.50;;
4290;SDS011;2159;50.906;7.152;2023-05-10T04:28:44;9.73;;;5.70;;
4290;SDS011;2159;50.906;7.152;2023-05-10T04:31:11;11.37;;;5.70;;
4290;SDS011;2159;50.906;7.152;2023-05-10T04:33:39;8.30;;;6.30;;
4290;SDS011;2159;50.906;7.152;2023-05-10T04:36:06;8.03;;;5.47;;
4290;SDS011;2159;50.906;7.152;2023-05-10T04:38:35;9.77;;;6.27;;
4290;SDS011;2159;50.906;7.152;2023-05-10T04:41:06;8.03;;;6.07;;
4290;SDS011;2159;50.906;7.152;2023-05-10T04:43:33;12.03;;;6.73;;
4290;SDS011;2159;50.906;7.152;2023-05-10T04:46:01;10.30;;;6.63;;
4290;SDS011;2159;50.906;7.152;2023-05-10T04:48:29;8.87;;;6.37;;
4290;SDS011;2159;50.906;7.152;2023-05-10T04:50:56;8.97;;;6.40;;
4290;SDS011;2159;50.906;7.152;2023-05-10T04:53:24;10.60;;;6.80;;
4290;SDS011;2159;50.906;7.152;2023-05-10T04:55:52;15.03;;;7.90;;
4290;SDS011;2159;50.906;7.152;2023-05-10T04:58:20;15.77;;;9.43;;
4290;SDS011;2159;50.906;7.152;2023-05-10T05:00:47;15.10;;;9.70;;
4290;SDS011;2159;50.906;7.152;2023-05-10T05:03:15;15.30;;;9.00;;
4290;SDS011;2159;50.906;7.152;2023-05-10T05:05:43;18.50;;;9.77;;
4290;SDS011;2159;50.906;7.152;2023-05-10T05:08:10;18.30;;;10.17;;
4290;SDS011;2159;50.906;7.152;2023-05-10T05:10:38;17.43;;;10.40;;
4290;SDS011;2159;50.906;7.152;2023-05-10T05:13:06;18.30;;;10.20;;
4290;SDS011;2159;50.906;7.152;2023-05-10T05:15:34;17.43;;;11.30;;
4290;SDS011;2159;50.906;7.152;2023-05-10T05:18:01;17.17;;;10.17;;
4290;SDS011;2159;50.906;7.152;2023-05-10T05:20:31;15.93;;;10.30;;
4290;SDS011;2159;50.906;7.152;2023-05-10T05:22:59;18.23;;;10.50;;
4290;SDS011;2159;50.906;7.152;2023-05-10T05:25:26;20.63;;;11.80;;
4290;SDS011;2159;50.906;7.152;2023-05-10T05:27:54;24.60;;;11.20;;
4290;SDS011;2159;50.906;7.152;2023-05-10T05:30:23;18.83;;;11.60;;
4290;SDS011;2159;50.906;7.152;2023-05-10T05:32:50;21.20;;;11.60;;
4290;SDS011;2159;50.906;7.152;2023-05-10T05:35:18;18.17;;;10.60;;
4290;SDS011;2159;50.906;7.152;2023-05-10T05:37:46;21.57;;;11.53;;
4290;SDS011;2159;50.906;7.152;2023-05-10T05:40:13;20.40;;;11.17;;
4290;SDS011;2159;50.906;7.152;2023-05-10T05:42:41;20.67;;;11.20;;
4290;SDS011;2159;50.906;7.152;2023-05-10T05:45:08;20.33;;;11.33;;
4290;SDS011;2159;50.906;7.152;2023-05-10T05:47:40;16.77;;;10.40;;
4290;SDS011;2159;50.906;7.152;2023-05-10T05:50:08;19.07;;;11.70;;
4290;SDS011;2159;50.906;7.152;2023-05-10T05:52:36;23.80;;;11.27;;
4290;SDS011;2159;50.906;7.152;2023-05-10T05:55:04;23.10;;;11.13;;
4290;SDS011;2159;50.906;7.152;2023-05-10T05:57:32;22.03;;;12.17;;
4290;SDS011;2159;50.906;7.152;2023-05-10T06:00:00;16.10;;;10.60;;
4290;SDS011;2159;50.906;7.152;2023-05-10T06:02:29;26.17;;;12.17;;
4290;SDS011;2159;50.906;7.152;2023-05-10T06:04:58;23.10;;;12.10;;
4290;SDS011;2159;50.906;7.152;2023-05-10T06:07:25;21.27;;;11.40;;
4290;SDS011;2159;50.906;7.152;2023-05-10T06:09:53;23.73;;;12.30;;
4290;SDS011;2159;50.906;7.152;2023-05-10T06:12:21;21.00;;;11.83;;
4290;SDS011;2159;50.906;7.152;2023-05-10T06:14:48;24.93;;;11.83;;
4290;SDS011;2159;50.906;7.152;2023-05-10T06:17:16;23.10;;;12.60;;
4290;SDS011;2159;50.906;7.152;2023-05-10T06:19:44;28.20;;;12.63;;
4290;SDS011;2159;50.906;7.152;2023-05-10T06:22:13;25.53;;;12.87;;
4290;SDS011;2159;50.906;7.152;2023-05-10T06:24:40;24.60;;;11.87;;
4290;SDS011;2159;50.906;7.152;2023-05-10T06:27:08;25.40;;;12.83;;
4290;SDS011;2159;50.906;7.152;2023-05-10T06:29:35;18.70;;;11.60;;
4290;SDS011;2159;50.906;7.152;2023-05-10T06:32:03;31.33;;;12.97;;
4290;SDS011;2159;50.906;7.152;2023-05-10T06:34:30;21.13;;;12.40;;
4290;SDS011;2159;50.906;7.152;2023-05-10T06:36:58;22.97;;;11.97;;
4290;SDS011;2159;50.906;7.152;2023-05-10T06:39:27;24.40;;;12.70;;
4290;SDS011;2159;50.906;7.152;2023-05-10T06:41:55;21.20;;;12.33;;
4290;SDS011;2159;50.906;7.152;2023-05-10T06:44:22;22.30;;;12.73;;
4290;SDS011;2159;50.906;7.152;2023-05-10T06:46:49;25.50;;;12.53;;
4290;SDS011;2159;50.906;7.152;2023-05-10T06:49:18;19.17;;;12.30;;
4290;SDS011;2159;50.906;7.152;2023-05-10T06:51:46;20.27;;;13.07;;
4290;SDS011;2159;50.906;7.152;2023-05-10T06:54:13;19.90;;;12.07;;
4290;SDS011;2159;50.906;7.152;2023-05-10T06:56:42;26.90;;;12.50;;
4290;SDS011;2159;50.906;7.152;2023-05-10T06:59:09;19.87;;;11.67;;
4290;SDS011;2159;50.906;7.152;2023-05-10T07:01:37;21.70;;;12.63;;
4290;SDS011;2159;50.906;7.152;2023-05-10T07:04:04;22.03;;;12.60;;
4290;SDS011;2159;50.906;7.152;2023-05-10T07:06:33;30.83;;;13.03;;
4290;SDS011;2159;50.906;7.152;2023-05-10T07:09:01;21.90;;;12.13;;
4290;SDS011;2159;50.906;7.152;2023-05-10T07:11:28;23.73;;;12.80;;
4290;SDS011;2159;50.906;7.152;2023-05-10T07:13:57;21.80;;;11.80;;
4290;SDS011;2159;50.906;7.152;2023-05-10T07:16:25;26.73;;;12.30;;
4290;SDS011;2159;50.906;7.152;2023-05-10T07:18:53;25.30;;;13.80;;
4290;SDS011;2159;50.906;7.152;2023-05-10T07:21:20;21.70;;;13.10;;
4290;SDS011;2159;50.906;7.152;2023-05-10T07:23:50;21.20;;;12.50;;
4290;SDS011;2159;50.906;7.152;2023-05-10T07:26:17;21.00;;;12.80;;
4290;SDS011;2159;50.906;7.152;2023-05-10T07:28:45;20.90;;;12.20;;
4290;SDS011;2159;50.906;7.152;2023-05-10T07:31:14;18.07;;;12.17;;
4290;SDS011;2159;50.906;7.152;2023-05-10T07:33:41;21.20;;;12.13;;
4290;SDS011;2159;50.906;7.152;2023-05-10T07:36:09;20.27;;;12.10;;
4290;SDS011;2159;50.906;7.152;2023-05-10T07:38:36;27.03;;;11.40;;
4290;SDS011;2159;50.906;7.152;2023-05-10T07:41:06;18.13;;;10.90;;
4290;SDS011;2159;50.906;7.152;2023-05-10T07:43:33;18.20;;;11.60;;
4290;SDS011;2159;50.906;7.152;2023-05-10T07:46:01;22.20;;;11.67;;
4290;SDS011;2159;50.906;7.152;2023-05-10T07:48:30;24.43;;;12.27;;
4290;SDS011;2159;50.906;7.152;2023-05-10T07:50:57;21.97;;;12.20;;
4290;SDS011;2159;50.906;7.152;2023-05-10T07:53:25;17.40;;;11.97;;
4290;SDS011;2159;50.906;7.152;2023-05-10T07:55:53;21.50;;;11.57;;
4290;SDS011;2159;50.906;7.152;2023-05-10T07:58:21;29.03;;;13.13;;
4290;SDS011;2159;50.906;7.152;2023-05-10T08:00:48;23.03;;;12.53;;
4290;SDS011;2159;50.906;7.152;2023-05-10T08:03:16;20.40;;;12.83;;
4290;SDS011;2159;50.906;7.152;2023-05-10T08:05:45;19.77;;;12.50;;
4290;SDS011;2159;50.906;7.152;2023-05-10T08:08:13;21.13;;;13.03;;
4290;SDS011;2159;50.906;7.152;2023-05-10T08:10:40;24.83;;;13.40;;
4290;SDS011;2159;50.906;7.152;2023-05-10T08:13:08;20.20;;;12.67;;
4290;SDS011;2159;50.906;7.152;2023-05-10T08:15:35;28.33;;;13.43;;
4290;SDS011;2159;50.906;7.152;2023-05-10T08:18:03;28.60;;;13.07;;
4290;SDS011;2159;50.906;7.152;2023-05-10T08:20:31;23.20;;;13.07;;
4290;SDS011;2159;50.906;7.152;2023-05-10T08:23:00;19.57;;;12.07;;
4290;SDS011;2159;50.906;7.152;2023-05-10T08:25:27;18.63;;;11.77;;
4290;SDS011;2159;50.906;7.152;2023-05-10T08:27:55;24.50;;;12.63;;
4290;SDS011;2159;50.906;7.152;2023-05-10T08:30:22;21.03;;;11.83;;
4290;SDS011;2159;50.906;7.152;2023-05-10T08:32:50;20.03;;;12.13;;
4290;SDS011;2159;50.906;7.152;2023-05-10T08:35:17;19.97;;;11.40;;
4290;SDS011;2159;50.906;7.152;2023-05-10T08:37:44;20.50;;;11.33;;
4290;SDS011;2159;50.906;7.152;2023-05-10T08:40:13;21.30;;;11.83;;
4290;SDS011;2159;50.906;7.152;2023-05-10T08:42:42;21.83;;;11.50;;
4290;SDS011;2159;50.906;7.152;2023-05-10T08:45:11;24.37;;;12.97;;
4290;SDS011;2159;50.906;7.152;2023-05-10T08:47:39;21.20;;;11.90;;
4290;SDS011;2159;50.906;7.152;2023-05-10T08:50:07;21.93;;;11.73;;
4290;SDS011;2159;50.906;7.152;2023-05-10T08:52:35;19.50;;;12.27;;
4290;SDS011;2159;50.906;7.152;2023-05-10T08:55:05;17.90;;;10.80;;
4290;SDS011;2159;50.906;7.152;2023-05-10T08:57:34;19.80;;;11.77;;
4290;SDS011;2159;50.906;7.152;2023-05-10T09:00:03;23.60;;;11.20;;
4290;SDS011;2159;50.906;7.152;2023-05-10T09:02:31;18.50;;;10.70;;
4290;SDS011;2159;50.906;7.152;2023-05-10T09:04:59;20.30;;;11.23;;
4290;SDS011;2159;50.906;7.152;2023-05-10T09:07:27;18.53;;;10.10;;
4290;SDS011;2159;50.906;7.152;2023-05-10T09:09:55;17.20;;;10.20;;
4290;SDS011;2159;50.906;7.152;2023-05-10T09:12:22;21.90;;;10.20;;
4290;SDS011;2159;50.906;7.152;2023-05-10T09:14:51;16.80;;;10.10;;
4290;SDS011;2159;50.906;7.152;2023-05-10T09:17:19;20.60;;;10.03;;
4290;SDS011;2159;50.906;7.152;2023-05-10T09:19:47;14.30;;;9.50;;
4290;SDS011;2159;50.906;7.152;2023-05-10T09:22:15;17.40;;;7.70;;
4290;SDS011;2159;50.906;7.152;2023-05-10T09:24:43;11.30;;;6.13;;
4290;SDS011;2159;50.906;7.152;2023-05-10T09:27:11;9.90;;;5.77;;
4290;SDS011;2159;50.906;7.152;2023-05-10T09:29:39;10.50;;;5.80;;
4290;SDS011;2159;50.906;7.152;2023-05-10T09:32:08;7.80;;;4.97;;
4290;SDS011;2159;50.906;7.152;2023-05-10T09:34:35;6.57;;;5.07;;
4290;SDS011;2159;50.906;7.152;2023-05-10T09:37:06;7.33;;;5.20;;
4290;SDS011;2159;50.906;7.152;2023-05-10T09:39:35;8.17;;;5.47;;
4290;SDS011;2159;50.906;7.152;2023-05-10T09:42:03;7.00;;;5.50;;
4290;SDS011;2159;50.906;7.152;2023-05-10T09:44:31;9.33;;;5.80;;
4290;SDS011;2159;50.906;7.152;2023-05-10T09:46:58;8.53;;;6.30;;
4290;SDS011;2159;50.906;7.152;2023-05-10T09:49:27;8.30;;;6.10;;
4290;SDS011;2159;50.906;7.152;2023-05-10T09:51:59;8.80;;;6.00;;
4290;SDS011;2159;50.906;7.152;2023-05-10T09:54:27;7.20;;;5.60;;
4290;SDS011;2159;50.906;7.152;2023-05-10T09:56:54;10.53;;;6.60;;
4290;SDS011;2159;50.906;7.152;2023-05-10T09:59:22;9.50;;;6.80;;
4290;SDS011;2159;50.906;7.152;2023-05-10T10:01:52;10.67;;;6.43;;
4290;SDS011;2159;50.906;7.152;2023-05-10T10:04:20;9.70;;;6.30;;
4290;SDS011;2159;50.906;7.152;2023-05-10T10:06:59;12.10;;;6.50;;
4290;SDS011;2159;50.906;7.152;2023-05-10T10:09:27;9.37;;;6.60;;
4290;SDS011;2159;50.906;7.152;2023-05-10T10:11:54;10.67;;;6.10;;
4290;SDS011;2159;50.906;7.152;2023-05-10T10:14:22;11.20;;;7.47;;
4290;SDS011;2159;50.906;7.152;2023-05-10T10:16:50;19.53;;;8.63;;
4290;SDS011;2159;50.906;7.152;2023-05-10T10:19:33;25.83;;;9.73;;
4290;SDS011;2159;50.906;7.152;2023-05-10T10:22:03;40.40;;;11.03;;
4290;SDS011;2159;50.906;7.152;2023-05-10T10:24:30;28.97;;;11.07;;
4290;SDS011;2159;50.906;7.152;2023-05-10T10:27:00;18.17;;;10.07;;
4290;SDS011;2159;50.906;7.152;2023-05-10T10:29:31;21.93;;;10.67;;
4290;SDS011;2159;50.906;7.152;2023-05-10T10:32:02;27.63;;;10.67;;
4290;SDS011;2159;50.906;7.152;2023-05-10T10:34:34;22.80;;;11.00;;
4290;SDS011;2159;50.906;7.152;2023-05-10T10:37:05;22.57;;;11.10;;
4290;SDS011;2159;50.906;7.152;2023-05-10T10:39:32;21.37;;;10.87;;
4290;SDS011;2159;50.906;7.152;2023-05-10T10:42:03;21.33;;;11.27;;
4290;SDS011;2159;50.906;7.152;2023-05-10T10:44:35;20.80;;;11.57;;
4290;SDS011;2159;50.906;7.152;2023-05-10T10:47:05;19.40;;;10.93;;
4290;SDS011;2159;50.906;7.152;2023-05-10T10:49:37;27.80;;;12.20;;
4290;SDS011;2159;50.906;7.152;2023-05-10T10:52:20;24.70;;;12.17;;
4290;SDS011;2159;50.906;7.152;2023-05-10T10:54:51;26.97;;;11.20;;
4290;SDS011;2159;50.906;7.152;2023-05-10T10:57:19;21.57;;;11.07;;
4290;SDS011;2159;50.906;7.152;2023-05-10T10:59:47;17.23;;;10.17;;
4290;SDS011;2159;50.906;7.152;2023-05-10T11:02:34;19.27;;;9.80;;
4290;SDS011;2159;50.906;7.152;2023-05-10T11:05:23;17.93;;;10.10;;
4290;SDS011;2159;50.906;7.152;2023-05-10T11:07:52;17.40;;;10.03;;
4290;SDS011;2159;50.906;7.152;2023-05-10T11:10:20;17.13;;;9.07;;
4290;SDS011;2159;50.906;7.152;2023-05-10T11:12:51;19.77;;;10.00;;
4290;SDS011;2159;50.906;7.152;2023-05-10T11:15:19;20.10;;;9.80;;
4290;SDS011;2159;50.906;7.152;2023-05-10T11:17:47;16.53;;;9.13;;
4290;SDS011;2159;50.906;7.152;2023-05-10T11:20:18;20.00;;;9.73;;
4290;SDS011;2159;50.906;7.152;2023-05-10T11:22:49;17.27;;;10.00;;
4290;SDS011;2159;50.906;7.152;2023-05-10T11:25:18;16.03;;;8.83;;
4290;SDS011;2159;50.906;7.152;2023-05-10T11:27:46;12.60;;;7.67;;
4290;SDS011;2159;50.906;7.152;2023-05-10T11:30:14;14.23;;;8.00;;
4290;SDS011;2159;50.906;7.152;2023-05-10T11:32:42;13.70;;;8.00;;
4290;SDS011;2159;50.906;7.152;2023-05-10T11:35:10;14.27;;;8.03;;
4290;SDS011;2159;50.906;7.152;2023-05-10T11:37:38;15.23;;;8.10;;
4290;SDS011;2159;50.906;7.152;2023-05-10T11:40:07;11.00;;;6.63;;
4290;SDS011;2159;50.906;7.152;2023-05-10T11:42:37;8.50;;;6.10;;
4290;SDS011;2159;50.906;7.152;2023-05-10T11:45:05;9.03;;;5.80;;
4290;SDS011;2159;50.906;7.152;2023-05-10T11:47:33;9.80;;;6.20;;
4290;SDS011;2159;50.906;7.152;2023-05-10T11:50:01;10.13;;;5.80;;
4290;SDS011;2159;50.906;7.152;2023-05-10T11:52:29;8.40;;;5.80;;
4290;SDS011;2159;50.906;7.152;2023-05-10T11:55:02;9.80;;;6.00;;
4290;SDS011;2159;50.906;7.152;2023-05-10T11:57:30;8.43;;;5.90;;
4290;SDS011;2159;50.906;7.152;2023-05-10T11:59:59;7.17;;;5.17;;
4290;SDS011;2159;50.906;7.152;2023-05-10T12:02:26;8.87;;;5.60;;
4290;SDS011;2159;50.906;7.152;2023-05-10T12:04:54;7.27;;;5.13;;
4290;SDS011;2159;50.906;7.152;2023-05-10T12:07:22;7.00;;;5.20;;
4290;SDS011;2159;50.906;7.152;2023-05-10T12:10:02;8.53;;;6.30;;
4290;SDS011;2159;50.906;7.152;2023-05-10T12:12:34;7.00;;;5.57;;
4290;SDS011;2159;50.906;7.152;2023-05-10T12:15:05;5.83;;;3.83;;
4290;SDS011;2159;50.906;7.152;2023-05-10T12:17:33;4.90;;;3.27;;
4290;SDS011;2159;50.906;7.152;2023-05-10T12:20:12;3.40;;;3.10;;
4290;SDS011;2159;50.906;7.152;2023-05-10T12:22:41;3.70;;;3.10;;
4290;SDS011;2159;50.906;7.152;2023-05-10T12:25:10;3.17;;;2.97;;
4290;SDS011;2159;50.906;7.152;2023-05-10T12:27:38;3.23;;;3.00;;
4290;SDS011;2159;50.906;7.152;2023-05-10T12:30:07;3.47;;;2.80;;
4290;SDS011;2159;50.906;7.152;2023-05-10T12:32:38;3.10;;;2.50;;
4290;SDS011;2159;50.906;7.152;2023-05-10T12:35:07;4.23;;;3.03;;
4290;SDS011;2159;50.906;7.152;2023-05-10T12:37:34;3.30;;;3.00;;
4290;SDS011;2159;50.906;7.152;2023-05-10T12:40:06;2.63;;;2.13;;
4290;SDS011;2159;50.906;7.152;2023-05-10T12:42:34;2.67;;;2.50;;
4290;SDS011;2159;50.906;7.152;2023-05-10T12:45:02;2.20;;;2.07;;
4290;SDS011;2159;50.906;7.152;2023-05-10T12:47:31;2.60;;;2.40;;
4290;SDS011;2159;50.906;7.152;2023-05-10T12:49:59;2.37;;;2.27;;
4290;SDS011;2159;50.906;7.152;2023-05-10T12:52:27;2.13;;;1.93;;
4290;SDS011;2159;50.906;7.152;2023-05-10T12:54:55;2.23;;;2.03;;
4290;SDS011;2159;50.906;7.152;2023-05-10T12:57:22;3.50;;;2.47;;
4290;SDS011;2159;50.906;7.152;2023-05-10T12:59:50;2.60;;;2.27;;
4290;SDS011;2159;50.906;7.152;2023-05-10T13:02:17;2.53;;;2.33;;
4290;SDS011;2159;50.906;7.152;2023-05-10T13:04:47;3.73;;;2.83;;
4290;SDS011;2159;50.906;7.152;2023-05-10T13:07:16;2.73;;;2.63;;
4290;SDS011;2159;50.906;7.152;2023-05-10T13:09:43;2.80;;;2.60;;
4290;SDS011;2159;50.906;7.152;2023-05-10T13:12:11;4.10;;;2.50;;
4290;SDS011;2159;50.906;7.152;2023-05-10T13:14:38;2.50;;;2.30;;
4290;SDS011;2159;50.906;7.152;2023-05-10T13:17:07;2.37;;;2.10;;
4290;SDS011;2159;50.906;7.152;2023-05-10T13:19:35;2.80;;;2.17;;
4290;SDS011;2159;50.906;7.152;2023-05-10T13:22:04;2.50;;;2.30;;
4290;SDS011;2159;50.906;7.152;2023-05-10T13:24:31;2.60;;;2.40;;
4290;SDS011;2159;50.906;7.152;2023-05-10T13:26:58;2.30;;;2.20;;
4290;SDS011;2159;50.906;7.152;2023-05-10T13:29:26;2.17;;;2.07;;
4290;SDS011;2159;50.906;7.152;2023-05-10T13:31:53;3.17;;;2.47;;
4290;SDS011;2159;50.906;7.152;2023-05-10T13:34:21;2.40;;;2.10;;
4290;SDS011;2159;50.906;7.152;2023-05-10T13:36:48;2.30;;;2.10;;
4290;SDS011;2159;50.906;7.152;2023-05-10T13:39:17;2.53;;;2.33;;
4290;SDS011;2159;50.906;7.152;2023-05-10T13:41:45;3.00;;;2.13;;
4290;SDS011;2159;50.906;7.152;2023-05-10T13:44:13;2.70;;;2.17;;
4290;SDS011;2159;50.906;7.152;2023-05-10T13:46:40;2.07;;;1.97;;
4290;SDS011;2159;50.906;7.152;2023-05-10T13:49:08;2.30;;;2.20;;
4290;SDS011;2159;50.906;7.152;2023-05-10T13:51:36;2.13;;;2.00;;
4290;SDS011;2159;50.906;7.152;2023-05-10T13:54:04;2.30;;;2.20;;
4290;SDS011;2159;50.906;7.152;2023-05-10T13:56:32;3.03;;;2.30;;
4290;SDS011;2159;50.906;7.152;2023-05-10T13:59:00;2.50;;;2.30;;
4290;SDS011;2159;50.906;7.152;2023-05-10T14:01:28;2.17;;;1.97;;
4290;SDS011;2159;50.906;7.152;2023-05-10T14:03:55;2.30;;;2.10;;
4290;SDS011;2159;50.906;7.152;2023-05-10T14:06:23;4.10;;;2.60;;
4290;SDS011;2159;50.906;7.152;2023-05-10T14:08:50;3.80;;;1.90;;
4290;SDS011;2159;50.906;7.152;2023-05-10T14:11:18;2.10;;;1.90;;
4290;SDS011;2159;50.906;7.152;2023-05-10T14:13:49;2.40;;;2.20;;
4290;SDS011;2159;50.906;7.152;2023-05-10T14:16:17;2.30;;;2.10;;
4290;SDS011;2159;50.906;7.152;2023-05-10T14:18:46;4.03;;;2.20;;
4290;SDS011;2159;50.906;7.152;2023-05-10T14:21:13;2.97;;;1.90;;
4290;SDS011;2159;50.906;7.152;2023-05-10T14:23:41;2.53;;;1.60;;
4290;SDS011;2159;50.906;7.152;2023-05-10T14:26:08;1.80;;;1.70;;
4290;SDS011;2159;50.906;7.152;2023-05-10T14:28:36;2.63;;;1.97;;
4290;SDS011;2159;50.906;7.152;2023-05-10T14:31:05;3.33;;;2.10;;
4290;SDS011;2159;50.906;7.152;2023-05-10T14:33:32;2.50;;;1.80;;
4290;SDS011;2159;50.906;7.152;2023-05-10T14:36:00;1.90;;;1.80;;
4290;SDS011;2159;50.906;7.152;2023-05-10T14:38:29;1.70;;;1.60;;
4290;SDS011;2159;50.906;7.152;2023-05-10T14:40:57;1.43;;;1.43;;
4290;SDS011;2159;50.906;7.152;2023-05-10T14:43:24;1.50;;;1.50;;
4290;SDS011;2159;50.906;7.152;2023-05-10T14:45:53;1.77;;;1.67;;
4290;SDS011;2159;50.906;7.152;2023-05-10T14:48:22;1.50;;;1.50;;
4290;SDS011;2159;50.906;7.152;2023-05-10T14:50:49;2.00;;;1.90;;
4290;SDS011;2159;50.906;7.152;2023-05-10T14:53:18;2.07;;;1.73;;
4290;SDS011;2159;50.906;7.152;2023-05-10T14:55:46;12.53;;;2.20;;
4290;SDS011;2159;50.906;7.152;2023-05-10T14:58:13;1.80;;;1.70;;
4290;SDS011;2159;50.906;7.152;2023-05-10T15:00:41;2.60;;;1.80;;
4290;SDS011;2159;50.906;7.152;2023-05-10T15:03:09;1.80;;;1.70;;
4290;SDS011;2159;50.906;7.152;2023-05-10T15:05:39;2.23;;;1.70;;
4290;SDS011;2159;50.906;7.152;2023-05-10T15:08:07;3.13;;;1.70;;
4290;SDS011;2159;50.906;7.152;2023-05-10T15:10:35;1.43;;;1.37;;
4290;SDS011;2159;50.906;7.152;2023-05-10T15:13:03;1.90;;;1.80;;
4290;SDS011;2159;50.906;7.152;2023-05-10T15:15:31;1.57;;;1.57;;